Airport View

Enter AWOS ICAO identifier for current METAR.

KFNL for example

KPIT 261751Z 13011KT 10SM BKN055 OVC200 19/09 A3002

26 Mar 2017 18:34

Phone: 412-472-0145

Other Area AWOS: 42PN - KAGC - KBVI - KBTP

TAF KPIT 261741Z 2618/2724 14014G19KT P6SM SCT050 BKN120 FM262000 14012G18KT 6SM -SHRA BKN050 FM262100 16012G18KT P6SM BKN035 FM262300 18008KT 6SM -SHRA OVC015 FM270200 18005KT P6SM VCSH OVC015 FM270700 22006KT P6SM OVC015